sensor_id;sensor_type;location;lat;lon;timestamp;P1;durP1;ratioP1;P2;durP2;ratioP2
82396;SDS011;72034;51.426;7.534;2023-12-20T05:00:23;24.75;;;9.90;;
82396;SDS011;72034;51.426;7.534;2023-12-20T05:02:48;21.52;;;9.98;;
82396;SDS011;72034;51.426;7.534;2023-12-20T05:05:22;20.48;;;9.90;;
82396;SDS011;72034;51.426;7.534;2023-12-20T05:07:53;19.02;;;9.57;;
82396;SDS011;72034;51.426;7.534;2023-12-20T05:10:18;27.02;;;9.55;;
82396;SDS011;72034;51.426;7.534;2023-12-20T05:12:52;20.13;;;9.45;;
82396;SDS011;72034;51.426;7.534;2023-12-20T05:15:18;24.25;;;10.25;;
82396;SDS011;72034;51.426;7.534;2023-12-20T05:17:49;22.33;;;10.18;;
82396;SDS011;72034;51.426;7.534;2023-12-20T05:20:17;25.05;;;9.65;;
82396;SDS011;72034;51.426;7.534;2023-12-20T05:22:53;23.38;;;10.68;;
82396;SDS011;72034;51.426;7.534;2023-12-20T05:25:27;18.45;;;9.65;;
82396;SDS011;72034;51.426;7.534;2023-12-20T05:27:55;26.55;;;9.77;;
82396;SDS011;72034;51.426;7.534;2023-12-20T05:30:21;15.50;;;9.88;;
82396;SDS011;72034;51.426;7.534;2023-12-20T05:32:49;21.67;;;10.10;;
82396;SDS011;72034;51.426;7.534;2023-12-20T05:35:22;20.00;;;9.80;;
82396;SDS011;72034;51.426;7.534;2023-12-20T05:37:57;20.70;;;10.30;;
82396;SDS011;72034;51.426;7.534;2023-12-20T05:40:22;19.27;;;9.38;;
82396;SDS011;72034;51.426;7.534;2023-12-20T05:42:47;19.42;;;9.77;;
82396;SDS011;72034;51.426;7.534;2023-12-20T05:45:20;25.50;;;9.32;;
82396;SDS011;72034;51.426;7.534;2023-12-20T05:47:48;27.15;;;9.95;;
82396;SDS011;72034;51.426;7.534;2023-12-20T05:50:14;24.05;;;9.88;;
82396;SDS011;72034;51.426;7.534;2023-12-20T05:52:42;21.17;;;8.95;;
82396;SDS011;72034;51.426;7.534;2023-12-20T05:55:11;21.02;;;9.15;;
82396;SDS011;72034;51.426;7.534;2023-12-20T05:57:36;24.23;;;9.80;;
82396;SDS011;72034;51.426;7.534;2023-12-20T06:00:04;25.85;;;9.20;;
82396;SDS011;72034;51.426;7.534;2023-12-20T06:02:31;24.90;;;8.65;;
82396;SDS011;72034;51.426;7.534;2023-12-20T06:04:59;23.08;;;9.25;;
82396;SDS011;72034;51.426;7.534;2023-12-20T06:07:24;21.05;;;8.43;;
82396;SDS011;72034;51.426;7.534;2023-12-20T06:10:19;27.13;;;9.23;;
82396;SDS011;72034;51.426;7.534;2023-12-20T06:12:45;18.92;;;9.15;;
82396;SDS011;72034;51.426;7.534;2023-12-20T06:15:15;26.65;;;10.63;;
82396;SDS011;72034;51.426;7.534;2023-12-20T06:17:51;29.38;;;9.85;;
82396;SDS011;72034;51.426;7.534;2023-12-20T06:20:16;18.63;;;8.50;;
82396;SDS011;72034;51.426;7.534;2023-12-20T06:22:42;22.27;;;9.18;;
82396;SDS011;72034;51.426;7.534;2023-12-20T06:25:07;22.02;;;9.00;;
82396;SDS011;72034;51.426;7.534;2023-12-20T06:27:33;23.17;;;7.90;;
82396;SDS011;72034;51.426;7.534;2023-12-20T06:29:59;26.55;;;10.07;;
82396;SDS011;72034;51.426;7.534;2023-12-20T06:32:27;24.25;;;9.30;;
82396;SDS011;72034;51.426;7.534;2023-12-20T06:34:55;25.42;;;9.38;;
82396;SDS011;72034;51.426;7.534;2023-12-20T06:37:20;20.85;;;9.18;;
82396;SDS011;72034;51.426;7.534;2023-12-20T06:39:49;19.40;;;8.95;;
82396;SDS011;72034;51.426;7.534;2023-12-20T06:42:22;25.00;;;10.10;;
82396;SDS011;72034;51.426;7.534;2023-12-20T06:44:50;18.55;;;8.55;;
82396;SDS011;72034;51.426;7.534;2023-12-20T06:47:18;27.35;;;10.43;;
82396;SDS011;72034;51.426;7.534;2023-12-20T06:49:46;24.02;;;9.20;;
82396;SDS011;72034;51.426;7.534;2023-12-20T06:52:14;20.95;;;8.23;;
82396;SDS011;72034;51.426;7.534;2023-12-20T06:54:40;25.55;;;8.13;;
82396;SDS011;72034;51.426;7.534;2023-12-20T06:57:14;23.10;;;7.80;;
82396;SDS011;72034;51.426;7.534;2023-12-20T06:59:40;18.83;;;7.82;;
82396;SDS011;72034;51.426;7.534;2023-12-20T07:02:21;20.38;;;7.50;;
82396;SDS011;72034;51.426;7.534;2023-12-20T07:04:59;22.17;;;7.78;;
82396;SDS011;72034;51.426;7.534;2023-12-20T07:07:25;24.17;;;8.25;;
82396;SDS011;72034;51.426;7.534;2023-12-20T07:12:39;20.13;;;7.10;;
82396;SDS011;72034;51.426;7.534;2023-12-20T07:15:05;17.63;;;7.30;;
82396;SDS011;72034;51.426;7.534;2023-12-20T07:17:32;17.75;;;6.78;;
82396;SDS011;72034;51.426;7.534;2023-12-20T07:20:00;17.00;;;6.97;;
82396;SDS011;72034;51.426;7.534;2023-12-20T07:22:33;17.13;;;6.72;;
82396;SDS011;72034;51.426;7.534;2023-12-20T07:25:11;18.38;;;7.35;;
82396;SDS011;72034;51.426;7.534;2023-12-20T07:27:42;14.68;;;6.30;;
82396;SDS011;72034;51.426;7.534;2023-12-20T07:30:08;18.08;;;6.68;;
82396;SDS011;72034;51.426;7.534;2023-12-20T07:32:37;16.60;;;6.47;;
82396;SDS011;72034;51.426;7.534;2023-12-20T07:35:02;20.30;;;7.90;;
82396;SDS011;72034;51.426;7.534;2023-12-20T07:37:40;21.40;;;7.03;;
82396;SDS011;72034;51.426;7.534;2023-12-20T07:40:11;21.35;;;6.90;;
82396;SDS011;72034;51.426;7.534;2023-12-20T07:42:44;19.30;;;6.53;;
82396;SDS011;72034;51.426;7.534;2023-12-20T07:45:15;16.63;;;6.65;;
82396;SDS011;72034;51.426;7.534;2023-12-20T07:47:48;16.48;;;6.63;;
82396;SDS011;72034;51.426;7.534;2023-12-20T07:50:17;14.05;;;5.88;;
82396;SDS011;72034;51.426;7.534;2023-12-20T07:52:54;14.18;;;5.78;;
82396;SDS011;72034;51.426;7.534;2023-12-20T07:55:24;17.08;;;6.53;;
82396;SDS011;72034;51.426;7.534;2023-12-20T07:57:52;15.15;;;5.18;;
82396;SDS011;72034;51.426;7.534;2023-12-20T08:00:24;15.23;;;5.88;;
82396;SDS011;72034;51.426;7.534;2023-12-20T08:02:49;18.92;;;6.65;;
82396;SDS011;72034;51.426;7.534;2023-12-20T08:05:18;18.42;;;6.40;;
82396;SDS011;72034;51.426;7.534;2023-12-20T08:07:51;13.95;;;5.80;;
82396;SDS011;72034;51.426;7.534;2023-12-20T08:10:22;21.70;;;6.47;;
82396;SDS011;72034;51.426;7.534;2023-12-20T08:12:58;19.65;;;7.07;;
82396;SDS011;72034;51.426;7.534;2023-12-20T08:15:32;20.60;;;7.13;;
82396;SDS011;72034;51.426;7.534;2023-12-20T08:17:57;17.20;;;6.18;;
82396;SDS011;72034;51.426;7.534;2023-12-20T08:20:28;18.80;;;7.15;;
82396;SDS011;72034;51.426;7.534;2023-12-20T08:22:56;23.08;;;7.20;;
82396;SDS011;72034;51.426;7.534;2023-12-20T08:25:57;15.77;;;6.47;;
82396;SDS011;72034;51.426;7.534;2023-12-20T08:28:22;18.27;;;6.57;;
82396;SDS011;72034;51.426;7.534;2023-12-20T08:30:48;22.25;;;7.05;;
82396;SDS011;72034;51.426;7.534;2023-12-20T08:33:38;17.25;;;7.07;;
82396;SDS011;72034;51.426;7.534;2023-12-20T08:36:21;15.57;;;6.07;;
82396;SDS011;72034;51.426;7.534;2023-12-20T08:38:50;26.35;;;8.68;;
82396;SDS011;72034;51.426;7.534;2023-12-20T08:41:24;16.55;;;6.43;;
82396;SDS011;72034;51.426;7.534;2023-12-20T08:43:50;13.98;;;6.53;;
82396;SDS011;72034;51.426;7.534;2023-12-20T08:46:25;16.70;;;6.85;;
82396;SDS011;72034;51.426;7.534;2023-12-20T08:48:56;21.73;;;7.03;;
82396;SDS011;72034;51.426;7.534;2023-12-20T08:51:22;18.48;;;6.65;;
82396;SDS011;72034;51.426;7.534;2023-12-20T08:53:50;17.63;;;6.88;;
82396;SDS011;72034;51.426;7.534;2023-12-20T08:56:19;20.83;;;6.82;;
82396;SDS011;72034;51.426;7.534;2023-12-20T08:58:50;20.30;;;7.00;;
82396;SDS011;72034;51.426;7.534;2023-12-20T09:01:31;16.73;;;6.53;;
82396;SDS011;72034;51.426;7.534;2023-12-20T09:04:02;18.98;;;7.28;;
82396;SDS011;72034;51.426;7.534;2023-12-20T09:06:31;18.75;;;6.68;;
82396;SDS011;72034;51.426;7.534;2023-12-20T09:08:57;15.65;;;7.63;;
82396;SDS011;72034;51.426;7.534;2023-12-20T09:11:34;22.52;;;6.93;;
82396;SDS011;72034;51.426;7.534;2023-12-20T09:14:05;19.92;;;7.15;;
82396;SDS011;72034;51.426;7.534;2023-12-20T09:16:37;18.40;;;6.90;;
82396;SDS011;72034;51.426;7.534;2023-12-20T09:19:22;28.23;;;7.18;;
82396;SDS011;72034;51.426;7.534;2023-12-20T09:21:47;22.40;;;7.32;;
82396;SDS011;72034;51.426;7.534;2023-12-20T09:24:23;18.40;;;7.05;;
82396;SDS011;72034;51.426;7.534;2023-12-20T09:26:57;14.93;;;6.63;;
82396;SDS011;72034;51.426;7.534;2023-12-20T09:29:23;22.13;;;7.45;;
82396;SDS011;72034;51.426;7.534;2023-12-20T09:31:58;25.95;;;7.60;;
82396;SDS011;72034;51.426;7.534;2023-12-20T09:34:33;16.75;;;6.45;;
82396;SDS011;72034;51.426;7.534;2023-12-20T09:37:02;19.23;;;5.88;;
82396;SDS011;72034;51.426;7.534;2023-12-20T09:39:30;14.30;;;6.53;;
82396;SDS011;72034;51.426;7.534;2023-12-20T09:44:33;24.35;;;7.55;;
82396;SDS011;72034;51.426;7.534;2023-12-20T09:47:01;18.23;;;5.90;;
82396;SDS011;72034;51.426;7.534;2023-12-20T09:49:33;17.48;;;6.10;;
82396;SDS011;72034;51.426;7.534;2023-12-20T09:51:59;12.88;;;5.68;;
82396;SDS011;72034;51.426;7.534;2023-12-20T09:54:28;20.65;;;5.93;;
82396;SDS011;72034;51.426;7.534;2023-12-20T09:57:06;19.40;;;6.43;;
82396;SDS011;72034;51.426;7.534;2023-12-20T09:59:31;20.98;;;5.70;;
82396;SDS011;72034;51.426;7.534;2023-12-20T10:02:04;15.57;;;5.40;;
82396;SDS011;72034;51.426;7.534;2023-12-20T10:04:36;18.15;;;6.15;;
82396;SDS011;72034;51.426;7.534;2023-12-20T10:07:13;22.02;;;4.95;;
82396;SDS011;72034;51.426;7.534;2023-12-20T10:09:41;16.05;;;5.80;;
82396;SDS011;72034;51.426;7.534;2023-12-20T10:12:30;18.70;;;5.05;;
82396;SDS011;72034;51.426;7.534;2023-12-20T10:15:01;14.77;;;5.10;;
82396;SDS011;72034;51.426;7.534;2023-12-20T10:17:27;18.27;;;5.30;;
82396;SDS011;72034;51.426;7.534;2023-12-20T10:19:55;20.75;;;6.90;;
82396;SDS011;72034;51.426;7.534;2023-12-20T10:22:34;14.25;;;4.82;;
82396;SDS011;72034;51.426;7.534;2023-12-20T10:25:11;10.90;;;4.90;;
82396;SDS011;72034;51.426;7.534;2023-12-20T10:27:41;15.70;;;5.10;;
82396;SDS011;72034;51.426;7.534;2023-12-20T10:30:15;16.42;;;5.07;;
82396;SDS011;72034;51.426;7.534;2023-12-20T10:32:56;23.48;;;5.68;;
82396;SDS011;72034;51.426;7.534;2023-12-20T10:35:37;16.77;;;4.70;;
82396;SDS011;72034;51.426;7.534;2023-12-20T10:38:10;14.25;;;4.65;;
82396;SDS011;72034;51.426;7.534;2023-12-20T10:41:09;15.13;;;5.45;;
82396;SDS011;72034;51.426;7.534;2023-12-20T10:43:53;13.77;;;5.95;;
82396;SDS011;72034;51.426;7.534;2023-12-20T10:46:24;15.63;;;5.68;;
82396;SDS011;72034;51.426;7.534;2023-12-20T10:48:56;19.08;;;5.95;;
82396;SDS011;72034;51.426;7.534;2023-12-20T10:51:33;18.55;;;6.38;;
82396;SDS011;72034;51.426;7.534;2023-12-20T10:54:03;14.50;;;5.25;;
82396;SDS011;72034;51.426;7.534;2023-12-20T10:56:49;15.25;;;5.40;;
82396;SDS011;72034;51.426;7.534;2023-12-20T10:59:25;13.23;;;6.18;;
82396;SDS011;72034;51.426;7.534;2023-12-20T11:02:00;17.92;;;6.78;;
82396;SDS011;72034;51.426;7.534;2023-12-20T11:04:39;19.05;;;5.95;;
82396;SDS011;72034;51.426;7.534;2023-12-20T11:13:10;18.48;;;6.53;;
82396;SDS011;72034;51.426;7.534;2023-12-20T11:16:02;12.95;;;5.05;;
82396;SDS011;72034;51.426;7.534;2023-12-20T11:18:31;14.40;;;5.10;;
82396;SDS011;72034;51.426;7.534;2023-12-20T11:21:04;24.92;;;6.10;;
82396;SDS011;72034;51.426;7.534;2023-12-20T11:23:42;20.80;;;6.50;;
82396;SDS011;72034;51.426;7.534;2023-12-20T11:35:16;17.55;;;6.47;;
82396;SDS011;72034;51.426;7.534;2023-12-20T11:37:48;23.30;;;6.95;;
82396;SDS011;72034;51.426;7.534;2023-12-20T11:40:24;15.93;;;6.00;;
82396;SDS011;72034;51.426;7.534;2023-12-20T11:42:53;19.52;;;6.60;;
82396;SDS011;72034;51.426;7.534;2023-12-20T11:45:23;16.52;;;6.00;;
82396;SDS011;72034;51.426;7.534;2023-12-20T11:47:52;18.33;;;6.72;;
82396;SDS011;72034;51.426;7.534;2023-12-20T11:50:23;16.15;;;6.57;;
82396;SDS011;72034;51.426;7.534;2023-12-20T11:52:52;20.05;;;5.65;;
82396;SDS011;72034;51.426;7.534;2023-12-20T11:55:23;18.27;;;6.63;;
82396;SDS011;72034;51.426;7.534;2023-12-20T11:57:55;16.33;;;6.85;;
82396;SDS011;72034;51.426;7.534;2023-12-20T12:00:31;15.32;;;7.18;;
82396;SDS011;72034;51.426;7.534;2023-12-20T12:02:59;14.57;;;6.97;;
82396;SDS011;72034;51.426;7.534;2023-12-20T12:05:36;18.30;;;7.28;;
82396;SDS011;72034;51.426;7.534;2023-12-20T12:08:10;22.05;;;7.95;;
82396;SDS011;72034;51.426;7.534;2023-12-20T12:10:41;22.15;;;8.25;;
82396;SDS011;72034;51.426;7.534;2023-12-20T12:13:11;23.70;;;7.53;;
82396;SDS011;72034;51.426;7.534;2023-12-20T12:15:50;17.58;;;8.00;;
82396;SDS011;72034;51.426;7.534;2023-12-20T12:18:28;19.48;;;7.78;;
82396;SDS011;72034;51.426;7.534;2023-12-20T12:21:02;16.73;;;8.30;;
82396;SDS011;72034;51.426;7.534;2023-12-20T12:23:36;18.85;;;7.05;;
82396;SDS011;72034;51.426;7.534;2023-12-20T12:26:14;21.13;;;8.50;;
82396;SDS011;72034;51.426;7.534;2023-12-20T12:28:42;18.05;;;7.45;;
82396;SDS011;72034;51.426;7.534;2023-12-20T12:31:15;15.20;;;7.47;;
82396;SDS011;72034;51.426;7.534;2023-12-20T12:33:43;17.17;;;7.70;;
82396;SDS011;72034;51.426;7.534;2023-12-20T12:36:20;19.05;;;8.25;;
82396;SDS011;72034;51.426;7.534;2023-12-20T12:38:46;21.02;;;7.60;;
82396;SDS011;72034;51.426;7.534;2023-12-20T12:41:25;14.35;;;7.70;;
82396;SDS011;72034;51.426;7.534;2023-12-20T12:43:57;14.85;;;7.50;;
82396;SDS011;72034;51.426;7.534;2023-12-20T12:46:22;17.30;;;7.18;;
82396;SDS011;72034;51.426;7.534;2023-12-20T12:48:58;22.90;;;7.40;;
82396;SDS011;72034;51.426;7.534;2023-12-20T12:51:27;14.07;;;6.65;;
82396;SDS011;72034;51.426;7.534;2023-12-20T12:54:00;23.77;;;6.70;;
82396;SDS011;72034;51.426;7.534;2023-12-20T12:56:39;12.25;;;6.57;;
82396;SDS011;72034;51.426;7.534;2023-12-20T12:59:10;21.35;;;7.65;;
82396;SDS011;72034;51.426;7.534;2023-12-20T13:01:38;16.50;;;7.82;;
82396;SDS011;72034;51.426;7.534;2023-12-20T13:04:16;21.13;;;7.57;;
82396;SDS011;72034;51.426;7.534;2023-12-20T13:06:53;20.25;;;8.02;;
82396;SDS011;72034;51.426;7.534;2023-12-20T13:09:29;13.63;;;6.78;;
82396;SDS011;72034;51.426;7.534;2023-12-20T13:12:15;23.65;;;7.43;;
82396;SDS011;72034;51.426;7.534;2023-12-20T13:14:52;17.10;;;6.93;;
82396;SDS011;72034;51.426;7.534;2023-12-20T13:17:21;17.52;;;6.40;;
82396;SDS011;72034;51.426;7.534;2023-12-20T13:19:52;17.73;;;6.93;;
82396;SDS011;72034;51.426;7.534;2023-12-20T13:22:29;10.90;;;5.68;;
82396;SDS011;72034;51.426;7.534;2023-12-20T13:24:57;17.38;;;6.13;;
82396;SDS011;72034;51.426;7.534;2023-12-20T13:27:26;12.35;;;6.28;;
82396;SDS011;72034;51.426;7.534;2023-12-20T13:29:57;15.30;;;6.40;;
82396;SDS011;72034;51.426;7.534;2023-12-20T13:32:26;14.10;;;6.03;;
82396;SDS011;72034;51.426;7.534;2023-12-20T13:34:57;20.88;;;7.70;;
82396;SDS011;72034;51.426;7.534;2023-12-20T13:37:28;16.45;;;6.30;;
82396;SDS011;72034;51.426;7.534;2023-12-20T13:40:03;13.15;;;6.05;;
82396;SDS011;72034;51.426;7.534;2023-12-20T13:42:40;19.05;;;6.53;;
82396;SDS011;72034;51.426;7.534;2023-12-20T13:48:07;12.02;;;6.57;;
82396;SDS011;72034;51.426;7.534;2023-12-20T13:50:32;16.13;;;6.07;;
82396;SDS011;72034;51.426;7.534;2023-12-20T13:53:28;20.40;;;6.78;;
82396;SDS011;72034;51.426;7.534;2023-12-20T13:56:02;17.23;;;6.60;;
82396;SDS011;72034;51.426;7.534;2023-12-20T13:58:33;12.43;;;6.60;;
82396;SDS011;72034;51.426;7.534;2023-12-20T14:01:18;14.55;;;6.80;;
82396;SDS011;72034;51.426;7.534;2023-12-20T14:03:53;19.40;;;7.50;;
82396;SDS011;72034;51.426;7.534;2023-12-20T14:06:25;18.35;;;6.65;;
82396;SDS011;72034;51.426;7.534;2023-12-20T14:08:59;14.07;;;6.78;;
82396;SDS011;72034;51.426;7.534;2023-12-20T14:11:32;19.35;;;6.90;;
82396;SDS011;72034;51.426;7.534;2023-12-20T14:14:05;12.48;;;6.40;;
82396;SDS011;72034;51.426;7.534;2023-12-20T14:16:42;11.75;;;5.47;;
82396;SDS011;72034;51.426;7.534;2023-12-20T14:19:25;12.80;;;5.72;;
82396;SDS011;72034;51.426;7.534;2023-12-20T14:21:50;8.68;;;5.60;;
82396;SDS011;72034;51.426;7.534;2023-12-20T14:24:19;9.80;;;7.10;;
82396;SDS011;72034;51.426;7.534;2023-12-20T14:26:44;12.77;;;6.97;;
82396;SDS011;72034;51.426;7.534;2023-12-20T14:29:12;8.68;;;5.50;;
82396;SDS011;72034;51.426;7.534;2023-12-20T14:31:41;12.43;;;6.07;;
82396;SDS011;72034;51.426;7.534;2023-12-20T14:34:23;13.70;;;5.90;;
82396;SDS011;72034;51.426;7.534;2023-12-20T14:36:58;11.77;;;6.18;;
82396;SDS011;72034;51.426;7.534;2023-12-20T14:39:29;9.55;;;6.35;;
82396;SDS011;72034;51.426;7.534;2023-12-20T14:42:05;8.15;;;5.40;;
82396;SDS011;72034;51.426;7.534;2023-12-20T14:44:40;12.55;;;6.28;;
82396;SDS011;72034;51.426;7.534;2023-12-20T14:47:14;9.82;;;5.88;;
82396;SDS011;72034;51.426;7.534;2023-12-20T14:49:48;12.07;;;5.57;;
82396;SDS011;72034;51.426;7.534;2023-12-20T14:52:23;9.68;;;5.55;;
82396;SDS011;72034;51.426;7.534;2023-12-20T14:54:56;11.48;;;5.63;;
82396;SDS011;72034;51.426;7.534;2023-12-20T14:57:36;13.57;;;5.45;;
82396;SDS011;72034;51.426;7.534;2023-12-20T15:00:11;11.90;;;4.88;;
82396;SDS011;72034;51.426;7.534;2023-12-20T15:02:48;11.82;;;5.22;;
82396;SDS011;72034;51.426;7.534;2023-12-20T15:05:16;11.00;;;5.78;;
82396;SDS011;72034;51.426;7.534;2023-12-20T15:07:44;12.15;;;7.32;;
82396;SDS011;72034;51.426;7.534;2023-12-20T15:10:20;14.57;;;6.78;;
82396;SDS011;72034;51.426;7.534;2023-12-20T15:13:02;14.52;;;7.82;;
82396;SDS011;72034;51.426;7.534;2023-12-20T15:15:30;12.48;;;7.15;;
82396;SDS011;72034;51.426;7.534;2023-12-20T15:18:07;19.38;;;7.88;;
82396;SDS011;72034;51.426;7.534;2023-12-20T15:20:43;17.25;;;8.23;;
82396;SDS011;72034;51.426;7.534;2023-12-20T15:23:12;15.18;;;7.90;;
82396;SDS011;72034;51.426;7.534;2023-12-20T15:25:44;16.27;;;8.00;;
82396;SDS011;72034;51.426;7.534;2023-12-20T15:28:24;17.48;;;8.82;;
82396;SDS011;72034;51.426;7.534;2023-12-20T15:30:52;18.95;;;9.40;;
82396;SDS011;72034;51.426;7.534;2023-12-20T15:33:26;22.27;;;8.48;;
82396;SDS011;72034;51.426;7.534;2023-12-20T15:36:01;22.48;;;9.18;;
82396;SDS011;72034;51.426;7.534;2023-12-20T15:38:40;20.20;;;8.63;;
82396;SDS011;72034;51.426;7.534;2023-12-20T15:41:23;16.77;;;9.25;;
82396;SDS011;72034;51.426;7.534;2023-12-20T15:43:49;19.88;;;8.85;;
82396;SDS011;72034;51.426;7.534;2023-12-20T15:46:26;16.83;;;8.52;;
82396;SDS011;72034;51.426;7.534;2023-12-20T15:49:05;18.17;;;8.00;;
82396;SDS011;72034;51.426;7.534;2023-12-20T15:51:43;19.50;;;8.90;;
82396;SDS011;72034;51.426;7.534;2023-12-20T15:54:16;15.48;;;8.27;;
82396;SDS011;72034;51.426;7.534;2023-12-20T15:56:52;20.48;;;9.38;;
82396;SDS011;72034;51.426;7.534;2023-12-20T15:59:23;20.80;;;10.45;;
82396;SDS011;72034;51.426;7.534;2023-12-20T16:01:48;16.08;;;9.50;;
82396;SDS011;72034;51.426;7.534;2023-12-20T16:04:17;17.10;;;8.95;;
82396;SDS011;72034;51.426;7.534;2023-12-20T16:06:48;16.42;;;9.48;;
82396;SDS011;72034;51.426;7.534;2023-12-20T16:09:34;27.58;;;8.98;;
82396;SDS011;72034;51.426;7.534;2023-12-20T16:12:02;16.85;;;8.32;;
82396;SDS011;72034;51.426;7.534;2023-12-20T16:14:39;14.68;;;9.20;;
82396;SDS011;72034;51.426;7.534;2023-12-20T16:17:08;17.20;;;8.90;;
82396;SDS011;72034;51.426;7.534;2023-12-20T16:19:47;15.50;;;9.05;;
82396;SDS011;72034;51.426;7.534;2023-12-20T16:22:23;20.15;;;10.00;;
82396;SDS011;72034;51.426;7.534;2023-12-20T16:24:52;13.15;;;8.27;;
82396;SDS011;72034;51.426;7.534;2023-12-20T16:27:17;15.85;;;8.05;;
82396;SDS011;72034;51.426;7.534;2023-12-20T16:29:43;15.57;;;8.70;;
82396;SDS011;72034;51.426;7.534;2023-12-20T16:32:14;15.57;;;8.35;;
82396;SDS011;72034;51.426;7.534;2023-12-20T16:34:48;18.30;;;9.18;;
82396;SDS011;72034;51.426;7.534;2023-12-20T16:37:29;18.77;;;9.65;;
82396;SDS011;72034;51.426;7.534;2023-12-20T16:39:58;19.25;;;8.75;;
82396;SDS011;72034;51.426;7.534;2023-12-20T16:42:25;20.25;;;9.35;;
82396;SDS011;72034;51.426;7.534;2023-12-20T16:44:57;24.38;;;9.95;;
82396;SDS011;72034;51.426;7.534;2023-12-20T16:47:28;22.08;;;10.38;;
82396;SDS011;72034;51.426;7.534;2023-12-20T16:49:54;17.52;;;9.65;;
82396;SDS011;72034;51.426;7.534;2023-12-20T16:52:34;17.63;;;8.70;;
82396;SDS011;72034;51.426;7.534;2023-12-20T16:55:16;19.30;;;10.50;;
82396;SDS011;72034;51.426;7.534;2023-12-20T16:57:45;20.13;;;9.13;;
82396;SDS011;72034;51.426;7.534;2023-12-20T17:00:16;20.30;;;9.75;;
82396;SDS011;72034;51.426;7.534;2023-12-20T17:02:45;17.88;;;9.52;;
82396;SDS011;72034;51.426;7.534;2023-12-20T17:05:31;16.55;;;9.18;;
82396;SDS011;72034;51.426;7.534;2023-12-20T17:11:00;18.58;;;8.27;;
82396;SDS011;72034;51.426;7.534;2023-12-20T17:13:32;19.73;;;9.15;;
82396;SDS011;72034;51.426;7.534;2023-12-20T17:16:04;15.88;;;8.98;;
82396;SDS011;72034;51.426;7.534;2023-12-20T17:18:46;20.73;;;9.10;;
82396;SDS011;72034;51.426;7.534;2023-12-20T17:21:21;18.90;;;9.48;;
82396;SDS011;72034;51.426;7.534;2023-12-20T17:23:49;17.95;;;9.88;;
82396;SDS011;72034;51.426;7.534;2023-12-20T17:26:30;21.70;;;9.80;;
82396;SDS011;72034;51.426;7.534;2023-12-20T17:29:11;17.40;;;10.38;;
82396;SDS011;72034;51.426;7.534;2023-12-20T17:32:05;19.45;;;10.55;;
82396;SDS011;72034;51.426;7.534;2023-12-20T17:34:35;19.27;;;10.65;;
82396;SDS011;72034;51.426;7.534;2023-12-20T17:37:01;17.58;;;9.57;;
82396;SDS011;72034;51.426;7.534;2023-12-20T17:39:30;16.48;;;10.13;;
82396;SDS011;72034;51.426;7.534;2023-12-20T17:42:09;20.70;;;9.80;;
82396;SDS011;72034;51.426;7.534;2023-12-20T17:44:41;16.52;;;9.32;;
82396;SDS011;72034;51.426;7.534;2023-12-20T17:47:18;22.40;;;10.30;;
82396;SDS011;72034;51.426;7.534;2023-12-20T17:49:57;21.30;;;10.25;;
82396;SDS011;72034;51.426;7.534;2023-12-20T17:52:48;22.10;;;9.98;;
82396;SDS011;72034;51.426;7.534;2023-12-20T17:55:36;17.08;;;10.10;;
82396;SDS011;72034;51.426;7.534;2023-12-20T17:58:16;19.00;;;10.80;;
82396;SDS011;72034;51.426;7.534;2023-12-20T18:00:52;17.65;;;11.07;;
82396;SDS011;72034;51.426;7.534;2023-12-20T18:03:29;16.73;;;10.15;;
82396;SDS011;72034;51.426;7.534;2023-12-20T18:06:00;17.90;;;10.55;;
82396;SDS011;72034;51.426;7.534;2023-12-20T18:08:48;21.45;;;12.55;;
82396;SDS011;72034;51.426;7.534;2023-12-20T18:11:21;24.00;;;12.07;;
82396;SDS011;72034;51.426;7.534;2023-12-20T18:13:47;18.83;;;10.32;;
82396;SDS011;72034;51.426;7.534;2023-12-20T18:16:15;18.45;;;11.10;;
82396;SDS011;72034;51.426;7.534;2023-12-20T18:18:42;23.70;;;12.93;;
82396;SDS011;72034;51.426;7.534;2023-12-20T18:21:10;23.40;;;11.52;;
82396;SDS011;72034;51.426;7.534;2023-12-20T18:23:55;22.73;;;12.57;;
82396;SDS011;72034;51.426;7.534;2023-12-20T18:26:30;21.70;;;11.95;;
82396;SDS011;72034;51.426;7.534;2023-12-20T18:29:15;19.55;;;11.82;;
82396;SDS011;72034;51.426;7.534;2023-12-20T18:31:56;21.15;;;13.35;;
82396;SDS011;72034;51.426;7.534;2023-12-20T18:34:27;21.95;;;13.18;;
82396;SDS011;72034;51.426;7.534;2023-12-20T18:37:15;20.27;;;11.75;;
82396;SDS011;72034;51.426;7.534;2023-12-20T18:39:49;22.48;;;13.32;;
82396;SDS011;72034;51.426;7.534;2023-12-20T18:42:15;25.90;;;13.23;;
82396;SDS011;72034;51.426;7.534;2023-12-20T18:44:43;26.92;;;13.32;;
82396;SDS011;72034;51.426;7.534;2023-12-20T18:47:12;20.95;;;11.63;;
82396;SDS011;72034;51.426;7.534;2023-12-20T18:52:21;21.58;;;12.23;;
82396;SDS011;72034;51.426;7.534;2023-12-20T18:54:55;22.13;;;13.57;;
82396;SDS011;72034;51.426;7.534;2023-12-20T18:57:30;27.73;;;12.68;;
82396;SDS011;72034;51.426;7.534;2023-12-20T18:59:58;20.05;;;12.55;;
82396;SDS011;72034;51.426;7.534;2023-12-20T19:02:27;24.85;;;13.73;;
82396;SDS011;72034;51.426;7.534;2023-12-20T19:05:07;21.20;;;11.60;;
82396;SDS011;72034;51.426;7.534;2023-12-20T19:07:41;21.70;;;12.88;;
82396;SDS011;72034;51.426;7.534;2023-12-20T19:10:18;18.20;;;13.27;;
82396;SDS011;72034;51.426;7.534;2023-12-20T19:12:50;26.15;;;13.43;;
82396;SDS011;72034;51.426;7.534;2023-12-20T19:15:21;22.00;;;14.98;;
82396;SDS011;72034;51.426;7.534;2023-12-20T19:18:24;23.00;;;12.68;;
82396;SDS011;72034;51.426;7.534;2023-12-20T19:20:55;25.13;;;13.27;;
82396;SDS011;72034;51.426;7.534;2023-12-20T19:30:05;22.48;;;13.40;;
82396;SDS011;72034;51.426;7.534;2023-12-20T19:32:42;18.73;;;11.40;;
82396;SDS011;72034;51.426;7.534;2023-12-20T19:35:10;17.45;;;11.30;;
82396;SDS011;72034;51.426;7.534;2023-12-20T19:40:59;18.17;;;11.05;;
82396;SDS011;72034;51.426;7.534;2023-12-20T19:43:28;22.40;;;12.48;;
82396;SDS011;72034;51.426;7.534;2023-12-20T19:46:10;23.52;;;11.43;;
82396;SDS011;72034;51.426;7.534;2023-12-20T19:48:44;21.83;;;12.02;;
82396;SDS011;72034;51.426;7.534;2023-12-20T19:51:21;21.45;;;12.13;;
82396;SDS011;72034;51.426;7.534;2023-12-20T19:53:58;23.00;;;12.45;;
82396;SDS011;72034;51.426;7.534;2023-12-20T19:56:29;19.60;;;12.60;;
82396;SDS011;72034;51.426;7.534;2023-12-20T19:59:24;24.13;;;11.55;;
82396;SDS011;72034;51.426;7.534;2023-12-20T20:01:55;20.88;;;13.30;;
82396;SDS011;72034;51.426;7.534;2023-12-20T20:04:32;24.83;;;13.48;;
82396;SDS011;72034;51.426;7.534;2023-12-20T20:07:06;23.77;;;13.93;;
82396;SDS011;72034;51.426;7.534;2023-12-20T20:09:40;26.33;;;15.20;;
82396;SDS011;72034;51.426;7.534;2023-12-20T20:12:11;25.88;;;15.52;;
82396;SDS011;72034;51.426;7.534;2023-12-20T20:14:56;27.40;;;15.55;;
82396;SDS011;72034;51.426;7.534;2023-12-20T20:17:36;22.05;;;13.13;;
82396;SDS011;72034;51.426;7.534;2023-12-20T20:20:12;22.83;;;13.02;;
82396;SDS011;72034;51.426;7.534;2023-12-20T20:22:40;25.52;;;12.98;;
82396;SDS011;72034;51.426;7.534;2023-12-20T20:25:29;20.08;;;12.93;;
82396;SDS011;72034;51.426;7.534;2023-12-20T20:27:57;27.80;;;14.82;;
82396;SDS011;72034;51.426;7.534;2023-12-20T20:30:22;23.17;;;13.52;;
82396;SDS011;72034;51.426;7.534;2023-12-20T20:32:54;21.48;;;11.63;;
82396;SDS011;72034;51.426;7.534;2023-12-20T20:35:23;21.63;;;12.50;;
82396;SDS011;72034;51.426;7.534;2023-12-20T20:37:58;23.85;;;12.45;;
82396;SDS011;72034;51.426;7.534;2023-12-20T20:43:04;16.63;;;10.88;;
82396;SDS011;72034;51.426;7.534;2023-12-20T20:45:38;20.25;;;10.73;;